Time;durP1;ratioP1;P1;durP2;ratioP2;P2;SDS_P1;SDS_P2;PMS_P1;PMS_P2;Temp;Humidity;BMP_temperature;BMP_pressure;BME280_temperature;BME280_humidity;BME280_pressure;Samples;Min_cycle;Max_cycle;Signal;HPM_P1;HPM_P2
2023/03/18 00:01:08;;;;;;;21.23;11.57;;;;;;;6.53;46.91;100162.00;6218301;22;96743;-91
2023/03/18 00:03:36;;;;;;;27.37;13.57;;;;;;;6.36;47.16;100133.66;6242623;22;99844;-91
2023/03/18 00:06:08;;;;;;;23.10;11.33;;;;;;;6.30;46.61;100108.56;6192570;22;101305;-91
2023/03/18 00:08:34;;;;;;;27.00;12.13;;;;;;;6.24;46.51;100095.66;6192551;22;96619;-91
2023/03/18 00:11:00;;;;;;;25.90;12.13;;;;;;;6.31;45.87;100098.97;6217456;22;96804;-92
2023/03/18 00:13:26;;;;;;;26.33;12.07;;;;;;;6.53;46.59;100125.50;6191861;22;100369;-92
2023/03/18 00:15:53;;;;;;;25.67;12.93;;;;;;;6.22;46.74;100100.03;6192383;22;101574;-91
2023/03/18 00:18:19;;;;;;;27.20;12.50;;;;;;;6.02;47.27;100078.72;6193096;22;97158;-91
2023/03/18 00:20:44;;;;;;;27.10;12.50;;;;;;;5.88;47.44;100069.38;6191473;22;96934;-91
2023/03/18 00:23:10;;;;;;;25.20;12.27;;;;;;;6.06;47.15;100093.41;6192201;22;101320;-92
2023/03/18 00:25:37;;;;;;;24.00;12.10;;;;;;;6.32;47.29;100122.44;6216461;22;99751;-92
2023/03/18 00:28:06;;;;;;;21.33;11.77;;;;;;;6.47;47.11;100129.09;6192011;22;96760;-93
2023/03/18 00:30:33;;;;;;;22.87;11.43;;;;;;;6.11;47.33;100065.53;6191758;22;96967;-92
2023/03/18 00:32:59;;;;;;;20.23;11.13;;;;;;;6.26;46.38;100096.50;6217196;22;101150;-91
2023/03/18 00:35:29;;;;;;;21.67;10.23;;;;;;;6.48;46.42;100117.75;6217226;22;98103;-92
2023/03/18 00:37:56;;;;;;;23.43;10.33;;;;;;;6.09;46.52;100064.69;6193962;22;96715;-91
2023/03/18 00:40:28;;;;;;;22.40;9.43;;;;;;;6.30;46.35;100103.34;6218489;22;96681;-91
2023/03/18 00:43:06;;;;;;;19.67;10.47;;;;;;;6.39;46.54;100123.16;6219154;22;100366;-91
2023/03/18 00:45:32;;;;;;;25.17;11.20;;;;;;;6.13;46.71;100093.25;6218068;22;97261;-92
2023/03/18 00:47:58;;;;;;;24.87;10.10;;;;;;;6.08;46.97;100092.50;6192152;22;97224;-92
2023/03/18 00:50:23;;;;;;;21.80;10.10;;;;;;;6.24;46.76;100115.66;6217037;22;96857;-91
2023/03/18 00:52:49;;;;;;;20.90;10.90;;;;;;;6.34;46.53;100123.28;6191537;22;101038;-91
2023/03/18 00:55:15;;;;;;;19.93;9.73;;;;;;;6.17;46.38;100082.75;6192293;22;100542;-91
2023/03/18 00:57:40;;;;;;;21.70;9.80;;;;;;;6.27;46.85;100129.47;6193566;22;97138;-91
2023/03/18 01:00:07;;;;;;;19.47;10.37;;;;;;;6.23;46.93;100114.81;6193994;22;97059;-91
2023/03/18 01:02:33;;;;;;;19.80;9.53;;;;;;;6.30;46.85;100133.78;6191205;22;101260;-91
2023/03/18 01:05:00;;;;;;;20.13;9.87;;;;;;;6.13;46.90;100116.69;6193314;22;101010;-91
2023/03/18 01:07:26;;;;;;;20.50;10.70;;;;;;;5.85;47.17;100064.25;6193690;22;97427;-92
2023/03/18 01:09:51;;;;;;;20.23;9.60;;;;;;;6.16;46.96;100120.16;6219023;22;97034;-91
2023/03/18 01:12:17;;;;;;;16.27;9.43;;;;;;;6.28;46.92;100130.34;6193122;22;101388;-91
2023/03/18 01:14:43;;;;;;;19.03;9.47;;;;;;;5.92;47.07;100072.78;6193238;22;99961;-91
2023/03/18 01:17:09;;;;;;;16.33;9.10;;;;;;;6.16;47.02;100135.78;6193759;22;96628;-94
2023/03/18 01:19:36;;;;;;;18.97;9.43;;;;;;;6.20;47.05;100130.50;6244611;22;97000;-91
2023/03/18 01:22:02;;;;;;;18.73;9.60;;;;;;;5.71;47.24;100062.78;6244255;22;98489;-92
2023/03/18 01:24:32;;;;;;;18.43;9.87;;;;;;;5.68;47.41;100087.13;6194887;22;98436;-95
2023/03/18 01:26:58;;;;;;;23.63;10.10;;;;;;;5.82;47.55;100126.81;6219315;22;97097;-91
2023/03/18 01:29:24;;;;;;;15.57;8.70;;;;;;;5.49;47.34;100063.13;6194165;22;97064;-92
2023/03/18 01:31:50;;;;;;;18.87;9.43;;;;;;;5.62;46.94;100095.91;6192659;22;100155;-92
2023/03/18 01:34:16;;;;;;;20.87;9.40;;;;;;;5.78;47.38;100119.94;6192496;22;99732;-92
2023/03/18 01:36:47;;;;;;;21.97;9.57;;;;;;;5.89;47.54;100117.13;6194852;22;97623;-92
2023/03/18 01:39:14;;;;;;;16.80;8.93;;;;;;;5.66;47.13;100079.31;6193683;22;97528;-92
2023/03/18 01:41:40;;;;;;;21.83;8.80;;;;;;;5.69;47.22;100107.06;6218175;22;101347;-91
2023/03/18 01:44:16;;;;;;;17.13;8.73;;;;;;;5.39;47.36;100065.06;6193905;22;101598;-94
2023/03/18 01:46:45;;;;;;;17.30;8.83;;;;;;;5.71;47.78;100109.66;6193825;22;96762;-92
2023/03/18 01:49:24;;;;;;;19.80;9.27;;;;;;;5.70;47.71;100100.97;6194000;22;96931;-91
2023/03/18 01:51:57;;;;;;;13.70;8.00;;;;;;;5.59;48.11;100106.38;6216720;22;101281;-93
2023/03/18 01:54:25;;;;;;;19.20;9.10;;;;;;;5.55;47.90;100091.66;6218344;22;101178;-92
2023/03/18 01:56:52;;;;;;;16.40;8.27;;;;;;;5.62;47.49;100108.06;6218227;22;96696;-93
2023/03/18 01:59:20;;;;;;;15.07;8.47;;;;;;;5.57;47.72;100102.94;6193411;22;97222;-94
2023/03/18 02:01:54;;;;;;;14.47;7.60;;;;;;;5.40;47.27;100071.97;6192203;22;100336;-92
2023/03/18 02:04:24;;;;;;;15.87;7.90;;;;;;;5.51;47.50;100087.41;6219230;22;100131;-92
2023/03/18 02:06:50;;;;;;;18.43;7.87;;;;;;;5.39;47.64;100070.25;6244723;22;96627;-92
2023/03/18 02:09:16;;;;;;;15.80;7.67;;;;;;;5.48;47.36;100071.00;6193522;22;96735;-92
2023/03/18 02:11:48;;;;;;;15.30;7.40;;;;;;;5.73;46.90;100100.94;6217676;22;98683;-92
2023/03/18 02:14:18;;;;;;;15.45;7.28;;;;;;;5.71;47.07;100102.69;6194056;22;101223;-92
2023/03/18 02:16:51;;;;;;;11.57;7.07;;;;;;;5.64;46.54;100075.91;6218016;22;96689;-92
2023/03/18 02:19:36;;;;;;;12.83;6.63;;;;;;;5.72;46.50;100077.50;6219735;22;97142;-92
2023/03/18 02:22:16;;;;;;;14.10;7.20;;;;;;;5.84;46.70;100098.97;6192878;22;100105;-92
2023/03/18 02:25:36;;;;;;;13.33;7.17;;;;;;;5.92;46.39;100101.44;6192423;22;100627;-92
2023/03/18 02:28:13;;;;;;;16.80;7.53;;;;;;;5.96;46.34;100099.66;6192677;22;97371;-91
2023/03/18 02:30:46;;;;;;;12.53;6.67;;;;;;;5.97;46.58;100091.84;6218101;22;97269;-92
2023/03/18 02:33:14;;;;;;;12.30;6.53;;;;;;;5.80;46.25;100060.00;6219208;22;100438;-91
2023/03/18 02:35:42;;;;;;;15.70;7.37;;;;;;;6.10;45.91;100114.16;6192692;22;101165;-92
2023/03/18 02:38:07;;;;;;;12.93;6.53;;;;;;;6.09;45.77;100099.41;6219095;22;96662;-92
2023/03/18 02:40:36;;;;;;;15.97;6.27;;;;;;;6.12;45.60;100106.31;6244077;22;97136;-93
2023/03/18 02:43:20;;;;;;;13.57;6.50;;;;;;;5.98;45.81;100079.66;6219264;22;100486;-91
2023/03/18 02:46:40;;;;;;;15.37;7.30;;;;;;;6.07;45.89;100101.19;6194998;22;100907;-91
2023/03/18 02:49:07;;;;;;;10.50;6.07;;;;;;;6.08;46.03;100097.72;6107942;22;97361;-91
2023/03/18 02:51:35;;;;;;;12.50;6.67;;;;;;;5.96;45.91;100086.66;6219115;22;96733;-92
2023/03/18 02:54:08;;;;;;;14.27;7.07;;;;;;;5.97;46.52;100096.19;6192575;22;99583;-91
2023/03/18 02:56:36;;;;;;;16.17;7.33;;;;;;;5.99;46.49;100102.22;6218019;22;101680;-91
2023/03/18 02:59:01;;;;;;;13.93;6.70;;;;;;;5.94;46.46;100104.94;6192198;22;96605;-92
2023/03/18 03:01:27;;;;;;;9.90;6.60;;;;;;;5.79;46.32;100068.69;6218518;22;96938;-92
2023/03/18 03:03:53;;;;;;;12.40;5.80;;;;;;;5.82;46.22;100073.88;6218056;22;102098;-91
2023/03/18 03:06:18;;;;;;;12.50;6.27;;;;;;;5.94;46.30;100094.50;6244840;22;99051;-91
2023/03/18 03:08:45;;;;;;;12.67;6.50;;;;;;;6.00;46.09;100088.31;6193864;22;97202;-91
2023/03/18 03:11:10;;;;;;;16.37;6.80;;;;;;;5.96;46.43;100094.47;6193304;22;96869;-92
2023/03/18 03:13:38;;;;;;;12.07;6.40;;;;;;;6.04;46.37;100106.47;6218948;22;100209;-92
2023/03/18 03:16:06;;;;;;;11.70;6.53;;;;;;;6.07;46.22;100093.38;6227199;22;98738;-92
2023/03/18 03:18:34;;;;;;;13.93;6.50;;;;;;;5.99;46.56;100110.91;6236911;22;97113;-91
2023/03/18 03:21:01;;;;;;;12.87;6.30;;;;;;;5.85;46.12;100081.63;6198164;22;96639;-92
2023/03/18 03:23:28;;;;;;;12.03;6.27;;;;;;;6.03;46.05;100099.53;6192935;22;101179;-91
2023/03/18 03:25:53;;;;;;;12.40;6.03;;;;;;;5.90;45.41;100079.78;6192850;22;100990;-91
2023/03/18 03:28:20;;;;;;;7.57;5.13;;;;;;;5.63;45.46;100061.16;6219155;22;97257;-92
2023/03/18 03:30:45;;;;;;;13.67;5.87;;;;;;;5.97;45.55;100106.63;6193063;22;96891;-89
2023/03/18 03:33:12;;;;;;;15.47;6.93;;;;;;;5.79;45.44;100094.72;6218095;22;100676;-91
2023/03/18 03:35:40;;;;;;;9.70;5.77;;;;;;;5.61;45.88;100081.19;6218538;22;100296;-91
2023/03/18 03:38:06;;;;;;;12.17;5.73;;;;;;;5.76;45.88;100100.88;6218603;22;97240;-92
2023/03/18 03:40:32;;;;;;;11.70;5.83;;;;;;;5.78;45.77;100113.88;6218582;22;96762;-92
2023/03/18 03:42:58;;;;;;;12.50;5.40;;;;;;;5.47;45.60;100053.63;6217965;22;101024;-92
2023/03/18 03:45:23;;;;;;;10.63;5.50;;;;;;;5.34;45.95;100050.41;6192307;22;101844;-91
2023/03/18 03:47:52;;;;;;;8.77;4.67;;;;;;;5.82;45.92;100120.75;6193910;22;97214;-91
2023/03/18 03:50:19;;;;;;;10.20;5.40;;;;;;;5.77;45.88;100102.59;6243730;22;96800;-90
2023/03/18 03:52:45;;;;;;;11.37;6.50;;;;;;;5.58;46.22;100090.75;6217242;22;101039;-91
2023/03/18 03:55:13;;;;;;;10.23;5.33;;;;;;;5.78;45.96;100121.69;6218655;22;100990;-93
2023/03/18 03:57:40;;;;;;;13.63;5.87;;;;;;;5.80;45.46;100104.28;6192434;22;96648;-91
2023/03/18 04:00:12;;;;;;;10.83;5.53;;;;;;;5.35;46.11;100054.72;6219693;22;96674;-91
2023/03/18 04:02:44;;;;;;;9.90;5.43;;;;;;;5.35;45.97;100049.50;6205641;22;99624;-95
2023/03/18 04:05:13;;;;;;;9.03;5.00;;;;;;;5.55;46.30;100078.66;6262688;22;97393;-93
2023/03/18 04:07:40;;;;;;;12.83;5.00;;;;;;;5.72;46.02;100077.50;6215049;22;97047;-92
2023/03/18 04:10:08;;;;;;;8.80;4.83;;;;;;;5.95;46.10;100104.03;6219391;22;96553;-93
2023/03/18 04:12:36;;;;;;;9.27;5.17;;;;;;;6.14;45.51;100112.38;6218505;22;100191;-92
2023/03/18 04:15:01;;;;;;;9.17;4.60;;;;;;;6.05;45.66;100102.09;6193191;22;101109;-91
2023/03/18 04:17:27;;;;;;;8.73;5.20;;;;;;;6.20;45.42;100120.06;6193452;22;97198;-91
2023/03/18 04:19:53;;;;;;;12.77;5.17;;;;;;;6.06;45.18;100116.88;6193084;22;97102;-91
2023/03/18 04:22:18;;;;;;;10.17;5.33;;;;;;;6.05;45.39;100126.44;6216751;22;100876;-92
2023/03/18 04:24:44;;;;;;;10.73;4.90;;;;;;;6.04;45.27;100129.91;6192399;22;101392;-91
2023/03/18 04:27:11;;;;;;;11.90;5.20;;;;;;;5.66;45.39;100081.09;6217858;22;96583;-91
2023/03/18 04:29:37;;;;;;;8.00;4.70;;;;;;;5.54;45.56;100073.50;6219762;22;96697;-92
2023/03/18 04:32:03;;;;;;;12.00;5.67;;;;;;;5.76;46.02;100139.94;6192772;22;99349;-92
2023/03/18 04:34:29;;;;;;;10.63;5.73;;;;;;;5.87;45.83;100142.34;6219618;22;100950;-91
2023/03/18 04:36:55;;;;;;;11.93;5.17;;;;;;;5.66;46.09;100100.16;6218992;22;96787;-94
2023/03/18 04:39:22;;;;;;;14.33;5.43;;;;;;;5.86;46.23;100141.50;6193883;22;97220;-91
2023/03/18 04:41:47;;;;;;;11.70;5.53;;;;;;;5.51;46.25;100091.78;6217957;22;98141;-92
2023/03/18 04:44:16;;;;;;;16.63;6.70;;;;;;;5.51;46.13;100099.59;6219305;22;101230;-93
2023/03/18 04:46:48;;;;;;;11.43;5.50;;;;;;;5.47;46.11;100084.88;6195916;22;96997;-93
2023/03/18 04:49:14;;;;;;;16.13;6.30;;;;;;;5.73;46.10;100146.94;6193706;22;96911;-94
2023/03/18 04:51:41;;;;;;;16.23;7.30;;;;;;;5.73;46.23;100137.41;6193990;22;100759;-91
2023/03/18 04:54:16;;;;;;;13.93;6.40;;;;;;;5.39;46.07;100100.66;6196856;22;101298;-93
2023/03/18 04:56:42;;;;;;;11.17;5.33;;;;;;;5.67;46.46;100124.47;6193051;22;97019;-93
2023/03/18 04:59:09;;;;;;;13.17;6.73;;;;;;;5.70;46.13;100102.72;6194333;22;97134;-91
2023/03/18 05:01:34;;;;;;;17.33;6.37;;;;;;;5.96;45.93;100123.13;6193162;22;101333;-92
2023/03/18 05:04:01;;;;;;;17.30;6.67;;;;;;;5.97;45.69;100122.25;6193616;22;101050;-92
2023/03/18 05:06:36;;;;;;;11.63;5.73;;;;;;;6.09;45.79;100135.06;6195201;22;97050;-92
2023/03/18 05:09:09;;;;;;;10.90;5.10;;;;;;;5.94;45.89;100135.34;6196830;22;96773;-92
2023/03/18 05:11:35;;;;;;;9.33;5.10;;;;;;;5.93;45.83;100131.84;6243556;22;98257;-92
2023/03/18 05:14:18;;;;;;;8.47;4.80;;;;;;;5.95;45.63;100127.47;6200151;22;101571;-93
2023/03/18 05:16:45;;;;;;;8.73;4.77;;;;;;;5.85;45.75;100103.31;6219571;22;96685;-92
2023/03/18 05:19:12;;;;;;;14.10;4.97;;;;;;;6.07;45.48;100142.88;6193576;22;96682;-92
2023/03/18 05:21:46;;;;;;;9.37;5.03;;;;;;;5.75;46.07;100096.53;6196422;22;99184;-92
2023/03/18 05:24:11;;;;;;;12.53;5.40;;;;;;;5.95;45.58;100114.44;6218745;22;97198;-92
2023/03/18 05:26:39;;;;;;;8.40;5.30;;;;;;;5.76;45.32;100072.22;6194140;22;97363;-94
2023/03/18 05:29:07;;;;;;;11.23;5.33;;;;;;;5.89;46.08;100107.56;6218660;22;96903;-92
2023/03/18 05:31:56;;;;;;;11.43;5.13;;;;;;;6.07;45.95;100144.63;6222639;22;98822;-92
2023/03/18 05:34:23;;;;;;;12.17;5.40;;;;;;;6.16;45.62;100147.06;6193862;22;100094;-92
2023/03/18 05:36:48;;;;;;;10.17;5.77;;;;;;;6.00;45.87;100136.09;6193384;22;96680;-91
2023/03/18 05:39:15;;;;;;;7.20;4.40;;;;;;;5.81;45.67;100096.44;6244820;22;96743;-91
2023/03/18 05:41:40;;;;;;;10.30;6.00;;;;;;;6.12;45.65;100148.03;6193731;22;100318;-93
2023/03/18 05:44:09;;;;;;;8.57;4.53;;;;;;;6.23;45.59;100153.03;6194088;22;100433;-91
2023/03/18 05:46:37;;;;;;;10.97;4.57;;;;;;;6.28;45.46;100153.78;6194519;22;97344;-93
2023/03/18 05:49:10;;;;;;;10.30;4.37;;;;;;;6.33;45.17;100146.75;6193174;22;100429;-93
2023/03/18 05:51:45;;;;;;;9.47;4.43;;;;;;;6.25;44.63;100127.78;6194850;22;100762;-92
2023/03/18 05:54:17;;;;;;;9.80;3.92;;;;;;;6.40;44.36;100153.59;6195145;22;99521;-92
2023/03/18 05:56:46;;;;;;;10.83;4.00;;;;;;;6.19;43.72;100096.63;6194472;22;97373;-92
2023/03/18 05:59:13;;;;;;;12.10;4.00;;;;;;;6.48;43.16;100124.72;6193770;22;97167;-91
2023/03/18 06:01:45;;;;;;;5.90;3.40;;;;;;;6.58;43.11;100134.94;6170207;22;101442;-91
2023/03/18 06:04:10;;;;;;;8.93;3.53;;;;;;;6.78;42.77;100149.34;6192516;22;100712;-92
2023/03/18 06:06:39;;;;;;;9.40;4.00;;;;;;;6.77;42.85;100131.94;6168262;22;97035;-91
2023/03/18 06:09:10;;;;;;;6.60;3.53;;;;;;;6.91;42.44;100155.13;6168687;22;96812;-91
2023/03/18 06:11:38;;;;;;;9.40;3.92;;;;;;;6.96;42.23;100153.28;6192828;22;101087;-93
2023/03/18 06:14:06;;;;;;;7.63;3.70;;;;;;;6.85;42.18;100106.56;6192705;22;100525;-91
2023/03/18 06:16:32;;;;;;;13.30;3.77;;;;;;;7.12;42.10;100154.66;6168258;22;96646;-92
2023/03/18 06:18:58;;;;;;;6.43;3.80;;;;;;;7.21;41.58;100156.19;6167994;22;96835;-91
2023/03/18 06:21:24;;;;;;;6.67;3.57;;;;;;;7.09;41.42;100128.63;6191975;22;100919;-91
2023/03/18 06:23:50;;;;;;;7.60;3.73;;;;;;;7.18;41.69;100144.06;6193162;22;101160;-92
2023/03/18 06:26:17;;;;;;;5.60;3.53;;;;;;;7.03;41.60;100102.66;6192312;22;97257;-92
2023/03/18 06:28:47;;;;;;;6.50;3.80;;;;;;;7.42;41.75;100153.09;6170918;22;96802;-89
2023/03/18 06:31:14;;;;;;;6.30;3.27;;;;;;;7.37;41.08;100120.16;6193197;22;101489;-90
2023/03/18 06:33:40;;;;;;;9.67;4.20;;;;;;;7.69;40.95;100148.09;6168291;22;101466;-89
2023/03/18 06:36:09;;;;;;;6.50;3.43;;;;;;;7.67;41.12;100145.50;6192901;22;96710;-92
2023/03/18 06:38:37;;;;;;;7.43;3.50;;;;;;;7.77;40.76;100140.94;6168870;22;96693;-90
2023/03/18 06:41:03;;;;;;;7.07;3.57;;;;;;;7.94;40.07;100140.47;6192066;22;101611;-90
2023/03/18 06:43:34;;;;;;;9.57;3.90;;;;;;;7.97;39.88;100142.16;6194219;22;99726;-91
2023/03/18 06:46:00;;;;;;;5.40;3.20;;;;;;;8.20;39.76;100157.25;6192856;22;96638;-89
2023/03/18 06:48:25;;;;;;;12.23;4.45;;;;;;;8.16;39.99;100169.53;6193982;22;96864;-89
2023/03/18 06:50:53;;;;;;;8.67;4.10;;;;;;;8.31;39.82;100163.03;6191742;22;101374;-89
2023/03/18 06:53:28;;;;;;;9.57;3.67;;;;;;;8.35;39.84;100165.53;6170864;22;100711;-90
2023/03/18 06:55:55;;;;;;;6.83;3.20;;;;;;;8.35;39.33;100149.00;6192571;22;97129;-90
2023/03/18 06:58:23;;;;;;;9.97;4.20;;;;;;;8.31;39.74;100163.88;6169137;22;96845;-89
2023/03/18 07:00:59;;;;;;;7.70;3.50;;;;;;;8.34;39.51;100147.25;6194197;22;101432;-89
2023/03/18 07:03:28;;;;;;;6.03;3.40;;;;;;;8.34;39.31;100147.25;6193121;22;101569;-90
2023/03/18 07:05:54;;;;;;;10.00;3.80;;;;;;;8.41;39.02;100148.84;6193416;22;96652;-89
2023/03/18 07:08:20;;;;;;;8.03;3.63;;;;;;;8.26;39.55;100131.81;6193186;22;96862;-89
2023/03/18 07:10:46;;;;;;;8.73;3.33;;;;;;;8.33;39.41;100135.09;6192337;22;101803;-90
2023/03/18 07:13:14;;;;;;;7.17;3.60;;;;;;;8.50;39.29;100161.69;6192823;22;101446;-90
2023/03/18 07:15:41;;;;;;;8.85;3.60;;;;;;;8.32;39.23;100126.41;6193372;22;97161;-90
2023/03/18 07:18:08;;;;;;;7.70;3.67;;;;;;;8.37;39.42;100124.47;6193174;22;97179;-91
2023/03/18 07:20:35;;;;;;;7.28;3.15;;;;;;;8.51;38.77;100138.97;6167542;22;101900;-90
2023/03/18 07:23:02;;;;;;;7.47;2.78;;;;;;;8.63;38.79;100159.56;6192598;22;100595;-89
2023/03/18 07:25:29;;;;;;;14.50;4.03;;;;;;;8.39;37.98;100104.41;6193645;22;97053;-91
2023/03/18 07:27:55;;;;;;;8.07;3.35;;;;;;;8.51;38.59;100131.13;6193149;22;97006;-90
2023/03/18 07:30:21;;;;;;;5.82;3.85;;;;;;;8.47;38.42;100103.34;6166511;22;101010;-92
2023/03/18 07:32:48;;;;;;;7.38;3.20;;;;;;;8.88;38.01;100164.09;6193217;22;101102;-90
2023/03/18 07:35:14;;;;;;;10.73;5.30;;;;;;;8.90;38.20;100147.44;6192356;22;97121;-91
2023/03/18 07:37:40;;;;;;;20.05;10.88;;;;;;;8.87;38.24;100142.28;6193112;22;96798;-90
2023/03/18 07:40:07;;;;;;;13.02;7.45;;;;;;;8.80;37.29;100120.66;6192318;22;98057;-90
2023/03/18 07:42:33;;;;;;;18.20;7.97;;;;;;;9.16;37.59;100162.38;6192428;22;100908;-89
2023/03/18 07:44:58;;;;;;;7.55;4.32;;;;;;;9.32;37.18;100182.84;6193005;22;96686;-90
2023/03/18 07:47:24;;;;;;;11.57;5.82;;;;;;;9.36;37.57;100181.81;6192285;22;97230;-89
2023/03/18 07:49:50;;;;;;;8.65;4.05;;;;;;;9.36;37.08;100168.72;6200493;22;101335;-89
2023/03/18 07:52:17;;;;;;;9.02;4.18;;;;;;;9.49;37.09;100184.03;6191634;22;100213;-90
2023/03/18 07:54:43;;;;;;;8.63;4.60;;;;;;;9.59;37.13;100176.72;6224497;22;96737;-89
2023/03/18 07:57:09;;;;;;;11.10;4.82;;;;;;;9.73;36.69;100182.38;6218844;22;97064;-90
2023/03/18 07:59:36;;;;;;;8.18;3.70;;;;;;;9.71;36.37;100181.56;6219007;22;101189;-89
2023/03/18 08:02:03;;;;;;;7.30;3.67;;;;;;;9.98;35.67;100176.31;6192373;22;100078;-95
2023/03/18 08:04:30;;;;;;;6.72;3.13;;;;;;;9.77;36.14;100145.56;6217508;22;96713;-90
2023/03/18 08:06:56;;;;;;;6.70;3.88;;;;;;;9.74;35.94;100121.19;6218737;22;96805;-89
2023/03/18 08:09:23;;;;;;;7.32;4.22;;;;;;;10.24;35.67;100187.66;6192917;22;101139;-92
2023/03/18 08:11:48;;;;;;;6.43;3.90;;;;;;;10.06;35.93;100158.53;6218133;22;101000;-91
2023/03/18 08:14:14;;;;;;;9.18;3.85;;;;;;;10.00;35.92;100131.69;6192713;22;96789;-90
2023/03/18 08:16:40;;;;;;;7.65;3.67;;;;;;;10.29;36.02;100167.41;6192452;22;96959;-90
2023/03/18 08:19:05;;;;;;;8.38;4.28;;;;;;;10.43;35.59;100179.13;6217474;22;101596;-90
2023/03/18 08:21:31;;;;;;;7.40;3.67;;;;;;;10.57;35.34;100188.28;6191582;22;101134;-90
2023/03/18 08:23:57;;;;;;;10.80;4.32;;;;;;;10.67;35.62;100192.28;6218664;22;97076;-90
2023/03/18 08:26:23;;;;;;;11.63;4.35;;;;;;;10.61;35.02;100171.50;6192191;22;96750;-93
2023/03/18 08:28:48;;;;;;;10.48;5.25;;;;;;;10.76;35.01;100201.59;6217641;22;101136;-90
2023/03/18 08:31:14;;;;;;;10.52;4.35;;;;;;;10.73;34.60;100196.44;6192065;22;101059;-90
2023/03/18 08:33:40;;;;;;;9.00;4.22;;;;;;;10.74;34.56;100204.28;6193557;22;96980;-90
2023/03/18 08:36:07;;;;;;;11.85;4.90;;;;;;;10.53;34.40;100170.91;6218033;22;96675;-90
2023/03/18 08:38:33;;;;;;;8.68;4.03;;;;;;;10.20;34.56;100123.97;6192446;22;101144;-89
2023/03/18 08:40:59;;;;;;;10.77;5.78;;;;;;;10.38;35.41;100154.84;6192094;22;100584;-90
2023/03/18 08:43:25;;;;;;;12.93;5.22;;;;;;;10.47;35.23;100150.16;6218076;22;97186;-90
2023/03/18 08:45:55;;;;;;;7.20;3.70;;;;;;;10.84;34.77;100195.16;6192409;22;97253;-91
2023/03/18 08:48:22;;;;;;;7.07;3.40;;;;;;;10.83;34.59;100168.97;6191748;22;101086;-89
2023/03/18 08:50:47;;;;;;;5.80;3.55;;;;;;;11.03;34.38;100184.81;6217509;22;98271;-90
2023/03/18 08:53:13;;;;;;;6.80;3.30;;;;;;;11.05;34.05;100185.63;6191672;22;96747;-90
2023/03/18 08:55:39;;;;;;;4.85;3.55;;;;;;;10.95;33.74;100180.78;6218577;22;96768;-92
2023/03/18 08:58:06;;;;;;;5.07;3.28;;;;;;;10.98;33.51;100167.53;6192534;22;99461;-90
2023/03/18 09:00:33;;;;;;;8.23;3.60;;;;;;;11.20;33.63;100167.53;6218088;22;101164;-90
2023/03/18 09:02:59;;;;;;;9.73;3.67;;;;;;;11.56;33.31;100186.25;6220224;22;96679;-91
2023/03/18 09:05:24;;;;;;;5.88;3.38;;;;;;;11.88;33.10;100182.34;6218094;22;97122;-92
2023/03/18 09:07:52;;;;;;;7.25;3.80;;;;;;;11.83;32.79;100141.34;6217634;22;98318;-90
2023/03/18 09:10:18;;;;;;;6.35;2.95;;;;;;;12.28;32.64;100175.41;6217622;22;101205;-90
2023/03/18 09:12:44;;;;;;;9.95;4.00;;;;;;;12.80;31.61;100188.91;6217352;22;96667;-90
2023/03/18 09:15:13;;;;;;;8.48;3.15;;;;;;;12.91;31.20;100180.47;6192446;22;96987;-90
2023/03/18 09:17:39;;;;;;;5.57;3.40;;;;;;;12.78;30.74;100143.31;6218055;22;100342;-90
2023/03/18 09:20:11;;;;;;;7.75;3.42;;;;;;;13.22;30.94;100182.56;6193508;22;101354;-91
2023/03/18 09:22:38;;;;;;;6.38;3.72;;;;;;;13.16;30.96;100158.28;6193180;22;96989;-89
2023/03/18 09:25:04;;;;;;;5.35;3.40;;;;;;;13.45;30.96;100175.38;6245367;22;97011;-89
2023/03/18 09:27:31;;;;;;;13.95;4.35;;;;;;;13.45;31.14;100167.47;6192064;22;100225;-89
2023/03/18 09:29:56;;;;;;;10.20;3.35;;;;;;;13.54;30.22;100159.94;6244538;22;98305;-89
2023/03/18 09:32:22;;;;;;;6.85;3.40;;;;;;;13.72;29.71;100155.53;6192598;22;97276;-89
2023/03/18 09:34:48;;;;;;;9.63;4.57;;;;;;;13.89;29.84;100141.53;6194070;22;97453;-90
2023/03/18 09:37:13;;;;;;;8.32;4.07;;;;;;;14.08;29.58;100177.53;6243755;22;97300;-90
2023/03/18 09:39:40;;;;;;;6.00;3.67;;;;;;;14.09;28.94;100161.63;6218524;22;99945;-88
2023/03/18 09:42:25;;;;;;;9.57;4.55;;;;;;;14.00;29.48;100173.50;6218475;22;97240;-89
2023/03/18 09:44:56;;;;;;;26.15;12.48;;;;;;;14.23;29.24;100187.31;6218187;22;97331;-88
2023/03/18 09:48:13;;;;;;;6.55;3.72;;;;;;;14.34;29.00;100171.78;6217780;22;98588;-89
2023/03/18 09:50:52;;;;;;;7.72;3.78;;;;;;;14.70;28.43;100184.00;6160080;22;101474;-90
2023/03/18 09:53:22;;;;;;;10.32;6.07;;;;;;;15.13;28.49;100177.25;6219636;22;96730;-89
2023/03/18 09:55:50;;;;;;;6.38;4.13;;;;;;;15.39;27.96;100174.97;6247136;22;96759;-89
2023/03/18 09:58:40;;;;;;;6.90;3.90;;;;;;;15.56;27.83;100158.09;6193217;22;100234;-90
2023/03/18 10:01:08;;;;;;;8.40;3.97;;;;;;;15.90;27.56;100150.91;6245548;22;101445;-87
2023/03/18 10:03:39;;;;;;;7.57;3.95;;;;;;;16.07;27.41;100150.75;6193138;22;96966;-89
2023/03/18 10:06:17;;;;;;;5.85;3.75;;;;;;;15.72;26.89;100131.66;6222376;22;96657;-89
2023/03/18 10:08:46;;;;;;;6.70;3.95;;;;;;;16.10;27.52;100162.97;6223539;22;101780;-90
2023/03/18 10:11:29;;;;;;;8.77;3.42;;;;;;;16.10;27.21;100152.38;6226127;22;99685;-93
2023/03/18 10:14:33;;;;;;;8.18;5.25;;;;;;;16.41;27.31;100159.34;6247234;22;96675;-91
2023/03/18 10:17:29;;;;;;;14.57;7.65;;;;;;;16.73;26.09;100160.84;6186398;22;97348;-88
2023/03/18 10:19:58;;;;;;;14.50;8.20;;;;;;;16.53;26.72;100183.28;6217835;22;99989;-89
2023/03/18 10:22:40;;;;;;;7.32;4.45;;;;;;;16.49;27.32;100160.56;6217489;22;101852;-90
2023/03/18 10:25:13;;;;;;;9.85;3.67;;;;;;;16.62;26.25;100158.00;6193404;22;96878;-89
2023/03/18 10:27:58;;;;;;;8.70;3.92;;;;;;;16.63;26.42;100158.84;6219161;22;97397;-90
2023/03/18 10:30:48;;;;;;;5.68;3.47;;;;;;;16.74;26.02;100153.75;6219163;22;100431;-91
2023/03/18 10:33:34;;;;;;;7.70;5.05;;;;;;;16.55;26.34;100154.06;6244394;22;99985;-91
2023/03/18 10:36:18;;;;;;;11.43;5.07;;;;;;;16.24;27.03;100157.69;6243594;22;96643;-89
2023/03/18 10:38:49;;;;;;;8.48;4.47;;;;;;;16.05;27.08;100155.28;6219500;22;96812;-89
2023/03/18 10:41:24;;;;;;;9.63;3.90;;;;;;;15.63;27.18;100144.44;6217398;22;101413;-91
2023/03/18 10:43:52;;;;;;;7.68;3.75;;;;;;;15.68;27.50;100162.75;6218613;22;100111;-88
2023/03/18 10:46:19;;;;;;;6.82;4.82;;;;;;;15.37;27.62;100145.94;6218076;22;96905;-88
2023/03/18 10:48:53;;;;;;;6.70;4.07;;;;;;;15.16;28.10;100160.38;6219221;22;97429;-89
2023/03/18 10:51:19;;;;;;;9.63;5.90;;;;;;;15.00;27.92;100159.50;6217597;22;101518;-89
2023/03/18 10:53:59;;;;;;;6.57;4.57;;;;;;;14.66;28.33;100162.19;6217482;22;101644;-89
2023/03/18 10:56:24;;;;;;;9.20;4.53;;;;;;;14.35;28.36;100151.50;6192351;22;97725;-88
2023/03/18 10:58:51;;;;;;;9.20;4.05;;;;;;;14.21;29.13;100152.22;6219072;22;96807;-90
2023/03/18 11:01:20;;;;;;;10.25;6.28;;;;;;;14.30;29.08;100167.56;6243299;22;98601;-89
2023/03/18 11:03:55;;;;;;;6.63;3.85;;;;;;;14.24;29.24;100130.94;6219622;22;101708;-90
2023/03/18 11:06:24;;;;;;;7.22;4.15;;;;;;;14.26;29.78;100131.72;6218777;22;97018;-89
2023/03/18 11:08:59;;;;;;;10.63;4.63;;;;;;;14.54;29.36;100146.13;6220219;22;96877;-89
2023/03/18 11:11:34;;;;;;;18.65;7.85;;;;;;;14.49;29.37;100128.72;6191751;22;101286;-89
2023/03/18 11:14:04;;;;;;;11.15;6.55;;;;;;;14.32;29.14;100120.00;6243935;22;97978;-88
2023/03/18 11:16:41;;;;;;;12.38;7.00;;;;;;;14.43;29.31;100149.31;6192436;22;96899;-88
2023/03/18 11:19:30;;;;;;;9.52;5.43;;;;;;;14.31;29.97;100150.81;6245013;22;96750;-88
2023/03/18 11:22:08;;;;;;;12.90;8.80;;;;;;;14.32;30.17;100152.53;6244162;22;98326;-89
2023/03/18 11:24:38;;;;;;;11.32;6.00;;;;;;;14.13;30.40;100123.56;6244420;22;101184;-89
2023/03/18 11:27:23;;;;;;;8.18;4.85;;;;;;;14.29;30.50;100125.44;6244442;22;97506;-89
2023/03/18 11:29:59;;;;;;;11.50;5.38;;;;;;;14.22;30.15;100140.72;6218744;22;96764;-92
2023/03/18 11:32:33;;;;;;;9.57;5.38;;;;;;;14.03;30.16;100119.72;6218812;22;98118;-91